sensor_id;sensor_type;location;lat;lon;timestamp;pressure;altitude;pressure_sealevel;temperature;humidity
67052;BME280;53957;47.222;18.670;2022-12-19T00:00:38;102509.41;;;-5.98;100.00
67052;BME280;53957;47.222;18.670;2022-12-19T00:03:49;102504.69;;;-6.04;100.00
67052;BME280;53957;47.222;18.670;2022-12-19T00:06:52;102518.84;;;-5.86;100.00
67052;BME280;53957;47.222;18.670;2022-12-19T00:09:55;102518.16;;;-5.99;100.00
67052;BME280;53957;47.222;18.670;2022-12-19T00:12:57;102522.53;;;-6.00;100.00
67052;BME280;53957;47.222;18.670;2022-12-19T00:16:07;102521.09;;;-6.04;100.00
67052;BME280;53957;47.222;18.670;2022-12-19T00:19:10;102525.72;;;-6.07;100.00
67052;BME280;53957;47.222;18.670;2022-12-19T00:22:14;102526.88;;;-6.23;100.00
67052;BME280;53957;47.222;18.670;2022-12-19T00:25:16;102526.66;;;-6.08;100.00
67052;BME280;53957;47.222;18.670;2022-12-19T00:28:21;102511.56;;;-6.03;100.00
67052;BME280;53957;47.222;18.670;2022-12-19T00:31:27;102516.56;;;-6.36;100.00
67052;BME280;53957;47.222;18.670;2022-12-19T00:34:30;102512.94;;;-6.10;100.00
67052;BME280;53957;47.222;18.670;2022-12-19T00:37:36;102511.91;;;-6.08;100.00
67052;BME280;53957;47.222;18.670;2022-12-19T00:40:44;102516.50;;;-6.00;100.00
67052;BME280;53957;47.222;18.670;2022-12-19T00:43:51;102504.34;;;-5.88;100.00
67052;BME280;53957;47.222;18.670;2022-12-19T00:46:55;102508.69;;;-6.11;100.00
67052;BME280;53957;47.222;18.670;2022-12-19T00:49:57;102507.53;;;-6.07;100.00
67052;BME280;53957;47.222;18.670;2022-12-19T00:53:00;102508.47;;;-6.08;100.00
67052;BME280;53957;47.222;18.670;2022-12-19T00:56:06;102507.53;;;-6.07;100.00
67052;BME280;53957;47.222;18.670;2022-12-19T00:59:09;102506.34;;;-6.03;100.00
67052;BME280;53957;47.222;18.670;2022-12-19T01:02:12;102495.22;;;-5.94;100.00
67052;BME280;53957;47.222;18.670;2022-12-19T01:05:15;102506.47;;;-5.93;100.00
67052;BME280;53957;47.222;18.670;2022-12-19T01:08:18;102505.41;;;-6.13;100.00
67052;BME280;53957;47.222;18.670;2022-12-19T01:11:23;102496.72;;;-6.37;100.00
67052;BME280;53957;47.222;18.670;2022-12-19T01:14:45;102492.38;;;-6.25;100.00
67052;BME280;53957;47.222;18.670;2022-12-19T01:17:49;102491.37;;;-6.00;100.00
67052;BME280;53957;47.222;18.670;2022-12-19T01:20:52;102483.78;;;-6.14;100.00
67052;BME280;53957;47.222;18.670;2022-12-19T01:23:55;102487.44;;;-6.17;100.00
67052;BME280;53957;47.222;18.670;2022-12-19T01:26:58;102484.69;;;-6.26;100.00
67052;BME280;53957;47.222;18.670;2022-12-19T01:30:02;102480.59;;;-6.18;100.00
67052;BME280;53957;47.222;18.670;2022-12-19T01:33:09;102475.03;;;-6.36;100.00
67052;BME280;53957;47.222;18.670;2022-12-19T01:36:14;102469.22;;;-6.39;100.00
67052;BME280;53957;47.222;18.670;2022-12-19T01:39:17;102472.50;;;-6.37;100.00
67052;BME280;53957;47.222;18.670;2022-12-19T01:42:21;102475.84;;;-6.24;100.00
67052;BME280;53957;47.222;18.670;2022-12-19T01:45:30;102475.16;;;-6.15;100.00
67052;BME280;53957;47.222;18.670;2022-12-19T01:48:39;102473.16;;;-6.11;100.00
67052;BME280;53957;47.222;18.670;2022-12-19T01:51:47;102471.84;;;-6.17;100.00
67052;BME280;53957;47.222;18.670;2022-12-19T01:54:50;102465.13;;;-5.85;100.00
67052;BME280;53957;47.222;18.670;2022-12-19T01:57:54;102464.97;;;-5.61;100.00
67052;BME280;53957;47.222;18.670;2022-12-19T02:00:58;102478.00;;;-5.72;100.00
67052;BME280;53957;47.222;18.670;2022-12-19T02:04:02;102469.59;;;-5.87;100.00
67052;BME280;53957;47.222;18.670;2022-12-19T02:07:05;102472.81;;;-5.95;100.00
67052;BME280;53957;47.222;18.670;2022-12-19T02:10:18;102473.25;;;-5.67;100.00
67052;BME280;53957;47.222;18.670;2022-12-19T02:13:22;102486.25;;;-5.44;100.00
67052;BME280;53957;47.222;18.670;2022-12-19T02:16:46;102480.13;;;-5.66;100.00
67052;BME280;53957;47.222;18.670;2022-12-19T02:29:58;102490.75;;;-5.58;100.00
67052;BME280;53957;47.222;18.670;2022-12-19T02:33:20;102488.25;;;-5.48;100.00
67052;BME280;53957;47.222;18.670;2022-12-19T02:36:36;102487.16;;;-5.23;100.00
67052;BME280;53957;47.222;18.670;2022-12-19T02:39:54;102491.75;;;-5.26;100.00
67052;BME280;53957;47.222;18.670;2022-12-19T02:43:00;102485.62;;;-4.93;100.00
67052;BME280;53957;47.222;18.670;2022-12-19T02:46:05;102481.59;;;-4.86;100.00
67052;BME280;53957;47.222;18.670;2022-12-19T02:49:11;102493.84;;;-4.97;100.00
67052;BME280;53957;47.222;18.670;2022-12-19T02:55:27;102478.09;;;-4.96;100.00
67052;BME280;53957;47.222;18.670;2022-12-19T03:02:46;102484.19;;;-5.18;100.00
67052;BME280;53957;47.222;18.670;2022-12-19T03:06:15;102469.94;;;-5.03;100.00
67052;BME280;53957;47.222;18.670;2022-12-19T03:13:00;102479.84;;;-4.96;100.00
67052;BME280;53957;47.222;18.670;2022-12-19T03:16:05;102483.56;;;-4.78;100.00
67052;BME280;53957;47.222;18.670;2022-12-19T03:19:12;102479.69;;;-4.83;100.00
67052;BME280;53957;47.222;18.670;2022-12-19T03:22:16;102472.09;;;-4.75;100.00
67052;BME280;53957;47.222;18.670;2022-12-19T03:25:19;102466.69;;;-4.83;100.00
67052;BME280;53957;47.222;18.670;2022-12-19T03:28:40;102456.72;;;-4.78;100.00
67052;BME280;53957;47.222;18.670;2022-12-19T03:31:45;102455.84;;;-4.67;100.00
67052;BME280;53957;47.222;18.670;2022-12-19T03:34:52;102453.09;;;-4.66;100.00
67052;BME280;53957;47.222;18.670;2022-12-19T03:38:01;102455.97;;;-4.69;100.00
67052;BME280;53957;47.222;18.670;2022-12-19T03:41:06;102456.78;;;-4.69;100.00
67052;BME280;53957;47.222;18.670;2022-12-19T03:44:14;102451.81;;;-4.72;100.00
67052;BME280;53957;47.222;18.670;2022-12-19T03:50:53;102444.78;;;-4.60;100.00
67052;BME280;53957;47.222;18.670;2022-12-19T03:54:08;102449.25;;;-4.50;100.00
67052;BME280;53957;47.222;18.670;2022-12-19T03:57:22;102452.09;;;-4.54;100.00
67052;BME280;53957;47.222;18.670;2022-12-19T04:00:28;102447.09;;;-4.45;100.00
67052;BME280;53957;47.222;18.670;2022-12-19T04:03:34;102452.59;;;-4.39;100.00
67052;BME280;53957;47.222;18.670;2022-12-19T04:06:37;102450.81;;;-4.38;100.00
67052;BME280;53957;47.222;18.670;2022-12-19T04:09:42;102458.13;;;-4.32;100.00
67052;BME280;53957;47.222;18.670;2022-12-19T04:12:50;102450.81;;;-4.17;100.00
67052;BME280;53957;47.222;18.670;2022-12-19T04:16:12;102441.19;;;-4.16;100.00
67052;BME280;53957;47.222;18.670;2022-12-19T04:19:30;102458.25;;;-4.12;100.00
67052;BME280;53957;47.222;18.670;2022-12-19T04:23:03;102451.63;;;-4.16;100.00
67052;BME280;53957;47.222;18.670;2022-12-19T04:26:08;102447.25;;;-4.16;100.00
67052;BME280;53957;47.222;18.670;2022-12-19T04:29:14;102450.03;;;-4.29;100.00
67052;BME280;53957;47.222;18.670;2022-12-19T04:32:18;102456.31;;;-4.10;100.00
67052;BME280;53957;47.222;18.670;2022-12-19T04:35:21;102459.19;;;-4.13;100.00
67052;BME280;53957;47.222;18.670;2022-12-19T04:38:25;102457.59;;;-4.05;100.00
67052;BME280;53957;47.222;18.670;2022-12-19T04:41:29;102469.19;;;-4.09;100.00
67052;BME280;53957;47.222;18.670;2022-12-19T04:44:32;102464.84;;;-4.08;100.00
67052;BME280;53957;47.222;18.670;2022-12-19T04:47:35;102470.81;;;-3.96;100.00
67052;BME280;53957;47.222;18.670;2022-12-19T04:50:38;102456.31;;;-4.10;100.00
67052;BME280;53957;47.222;18.670;2022-12-19T04:53:50;102455.50;;;-4.11;100.00
67052;BME280;53957;47.222;18.670;2022-12-19T04:56:58;102456.59;;;-4.13;100.00
67052;BME280;53957;47.222;18.670;2022-12-19T05:00:33;102471.00;;;-4.09;100.00
67052;BME280;53957;47.222;18.670;2022-12-19T05:03:36;102470.25;;;-4.00;100.00
67052;BME280;53957;47.222;18.670;2022-12-19T05:07:40;102470.87;;;-4.08;100.00
67052;BME280;53957;47.222;18.670;2022-12-19T05:11:04;102471.88;;;-3.99;100.00
67052;BME280;53957;47.222;18.670;2022-12-19T05:14:54;102478.09;;;-3.90;100.00
67052;BME280;53957;47.222;18.670;2022-12-19T05:18:30;102473.69;;;-3.90;100.00
67052;BME280;53957;47.222;18.670;2022-12-19T05:21:58;102479.69;;;-3.99;100.00
67052;BME280;53957;47.222;18.670;2022-12-19T05:25:41;102487.06;;;-4.04;100.00
67052;BME280;53957;47.222;18.670;2022-12-19T05:28:44;102484.03;;;-4.09;100.00
67052;BME280;53957;47.222;18.670;2022-12-19T05:31:51;102486.34;;;-4.16;100.00
67052;BME280;53957;47.222;18.670;2022-12-19T05:34:55;102475.44;;;-4.21;100.00
67052;BME280;53957;47.222;18.670;2022-12-19T05:38:01;102475.84;;;-4.05;100.00
67052;BME280;53957;47.222;18.670;2022-12-19T05:41:16;102467.97;;;-4.14;100.00
67052;BME280;53957;47.222;18.670;2022-12-19T05:44:19;102458.81;;;-3.99;100.00
67052;BME280;53957;47.222;18.670;2022-12-19T05:47:22;102451.56;;;-4.26;100.00
67052;BME280;53957;47.222;18.670;2022-12-19T05:50:25;102460.56;;;-4.09;100.00
67052;BME280;53957;47.222;18.670;2022-12-19T05:53:28;102457.63;;;-4.26;100.00
67052;BME280;53957;47.222;18.670;2022-12-19T05:56:31;102475.00;;;-4.05;100.00
67052;BME280;53957;47.222;18.670;2022-12-19T05:59:35;102472.22;;;-4.13;100.00
67052;BME280;53957;47.222;18.670;2022-12-19T06:02:38;102457.03;;;-4.08;100.00
67052;BME280;53957;47.222;18.670;2022-12-19T06:05:41;102446.53;;;-4.18;100.00
67052;BME280;53957;47.222;18.670;2022-12-19T06:08:45;102457.19;;;-4.00;100.00
67052;BME280;53957;47.222;18.670;2022-12-19T06:11:48;102461.81;;;-4.13;100.00
67052;BME280;53957;47.222;18.670;2022-12-19T06:14:51;102462.59;;;-4.13;100.00
67052;BME280;53957;47.222;18.670;2022-12-19T06:17:54;102470.28;;;-4.11;100.00
67052;BME280;53957;47.222;18.670;2022-12-19T06:21:03;102480.19;;;-4.05;100.00
67052;BME280;53957;47.222;18.670;2022-12-19T06:24:07;102484.03;;;-4.09;100.00
67052;BME280;53957;47.222;18.670;2022-12-19T06:27:09;102490.44;;;-3.92;100.00
67052;BME280;53957;47.222;18.670;2022-12-19T06:30:20;102485.22;;;-3.92;100.00
67052;BME280;53957;47.222;18.670;2022-12-19T06:34:01;102491.00;;;-3.89;100.00
67052;BME280;53957;47.222;18.670;2022-12-19T06:37:04;102475.41;;;-4.10;100.00
67052;BME280;53957;47.222;18.670;2022-12-19T06:40:10;102475.34;;;-3.48;100.00
67052;BME280;53957;47.222;18.670;2022-12-19T06:43:33;102483.91;;;-3.77;100.00
67052;BME280;53957;47.222;18.670;2022-12-19T06:46:36;102495.41;;;-3.79;100.00
67052;BME280;53957;47.222;18.670;2022-12-19T06:49:39;102480.19;;;-4.05;100.00
67052;BME280;53957;47.222;18.670;2022-12-19T06:52:41;102482.81;;;-4.05;100.00
67052;BME280;53957;47.222;18.670;2022-12-19T06:55:45;102475.03;;;-3.95;100.00
67052;BME280;53957;47.222;18.670;2022-12-19T06:58:48;102475.44;;;-4.00;100.00
67052;BME280;53957;47.222;18.670;2022-12-19T07:02:03;102466.78;;;-4.00;100.00
67052;BME280;53957;47.222;18.670;2022-12-19T07:05:08;102480.13;;;-3.94;100.00
67052;BME280;53957;47.222;18.670;2022-12-19T07:08:12;102470.66;;;-3.95;100.00
67052;BME280;53957;47.222;18.670;2022-12-19T07:11:15;102472.00;;;-4.00;100.00
67052;BME280;53957;47.222;18.670;2022-12-19T07:14:18;102483.19;;;-3.89;100.00
67052;BME280;53957;47.222;18.670;2022-12-19T07:48:24;102487.87;;;-3.82;100.00
67052;BME280;53957;47.222;18.670;2022-12-19T07:51:27;102483.25;;;-3.69;100.00
67052;BME280;53957;47.222;18.670;2022-12-19T07:54:30;102476.22;;;-3.78;100.00
67052;BME280;53957;47.222;18.670;2022-12-19T07:57:34;102485.06;;;-3.60;100.00
67052;BME280;53957;47.222;18.670;2022-12-19T08:00:36;102501.56;;;-3.59;100.00
67052;BME280;53957;47.222;18.670;2022-12-19T08:03:40;102503.53;;;-3.42;100.00
67052;BME280;53957;47.222;18.670;2022-12-19T08:07:03;102506.84;;;-3.30;100.00
67052;BME280;53957;47.222;18.670;2022-12-19T08:10:07;102508.72;;;-3.51;100.00
67052;BME280;53957;47.222;18.670;2022-12-19T08:13:11;102512.28;;;-3.52;100.00
67052;BME280;53957;47.222;18.670;2022-12-19T08:16:58;102510.63;;;-3.53;100.00
67052;BME280;53957;47.222;18.670;2022-12-19T08:20:21;102513.97;;;-3.42;100.00
67052;BME280;53957;47.222;18.670;2022-12-19T08:23:24;102517.38;;;-3.41;100.00
67052;BME280;53957;47.222;18.670;2022-12-19T08:26:27;102523.62;;;-3.63;100.00
67052;BME280;53957;47.222;18.670;2022-12-19T08:29:40;102521.63;;;-3.50;100.00
67052;BME280;53957;47.222;18.670;2022-12-19T08:32:43;102513.44;;;-3.35;100.00
67052;BME280;53957;47.222;18.670;2022-12-19T08:35:47;102501.63;;;-3.30;100.00
67052;BME280;53957;47.222;18.670;2022-12-19T08:38:50;102498.09;;;-3.09;100.00
67052;BME280;53957;47.222;18.670;2022-12-19T08:41:54;102495.66;;;-2.91;100.00
67052;BME280;53957;47.222;18.670;2022-12-19T08:48:13;102491.50;;;-2.54;100.00
67052;BME280;53957;47.222;18.670;2022-12-19T08:51:36;102494.25;;;-2.66;100.00
67052;BME280;53957;47.222;18.670;2022-12-19T08:54:39;102479.12;;;-2.52;100.00
67052;BME280;53957;47.222;18.670;2022-12-19T08:58:22;102484.84;;;-2.19;100.00
67052;BME280;53957;47.222;18.670;2022-12-19T09:02:08;102474.97;;;-2.35;100.00
67052;BME280;53957;47.222;18.670;2022-12-19T09:05:33;102479.12;;;-2.52;100.00
67052;BME280;53957;47.222;18.670;2022-12-19T09:08:56;102478.38;;;-2.15;100.00
67052;BME280;53957;47.222;18.670;2022-12-19T09:12:26;102499.62;;;-1.53;100.00
67052;BME280;53957;47.222;18.670;2022-12-19T09:16:26;102495.69;;;-1.39;100.00
67052;BME280;53957;47.222;18.670;2022-12-19T09:19:29;102492.69;;;-1.44;100.00
67052;BME280;53957;47.222;18.670;2022-12-19T09:22:32;102492.78;;;-1.64;100.00
67052;BME280;53957;47.222;18.670;2022-12-19T09:25:35;102471.88;;;-1.73;100.00
67052;BME280;53957;47.222;18.670;2022-12-19T09:28:39;102461.97;;;-1.42;100.00
67052;BME280;53957;47.222;18.670;2022-12-19T09:32:02;102460.84;;;-1.67;100.00
67052;BME280;53957;47.222;18.670;2022-12-19T09:35:26;102461.22;;;-1.34;100.00
67052;BME280;53957;47.222;18.670;2022-12-19T09:38:40;102455.75;;;-1.23;100.00
67052;BME280;53957;47.222;18.670;2022-12-19T09:45:34;102472.00;;;-1.19;100.00
67052;BME280;53957;47.222;18.670;2022-12-19T09:48:40;102464.75;;;-1.25;100.00
67052;BME280;53957;47.222;18.670;2022-12-19T09:52:17;102458.47;;;-1.15;100.00
67052;BME280;53957;47.222;18.670;2022-12-19T09:55:28;102450.00;;;-0.90;100.00
67052;BME280;53957;47.222;18.670;2022-12-19T09:58:46;102455.38;;;-0.74;100.00
67052;BME280;53957;47.222;18.670;2022-12-19T10:05:37;102439.66;;;-1.10;100.00
67052;BME280;53957;47.222;18.670;2022-12-19T10:09:16;102446.13;;;-1.04;100.00
67052;BME280;53957;47.222;18.670;2022-12-19T10:13:45;102440.44;;;-1.00;100.00
67052;BME280;53957;47.222;18.670;2022-12-19T10:24:42;102417.13;;;-1.03;100.00
67052;BME280;53957;47.222;18.670;2022-12-19T10:32:05;102430.84;;;-1.09;100.00
67052;BME280;53957;47.222;18.670;2022-12-19T10:35:17;102417.97;;;-1.20;100.00
67052;BME280;53957;47.222;18.670;2022-12-19T10:38:44;102419.53;;;-1.27;100.00
67052;BME280;53957;47.222;18.670;2022-12-19T10:42:02;102419.09;;;-1.23;100.00
67052;BME280;53957;47.222;18.670;2022-12-19T10:45:30;102406.50;;;-0.83;100.00
67052;BME280;53957;47.222;18.670;2022-12-19T10:48:36;102401.22;;;-0.91;100.00
67052;BME280;53957;47.222;18.670;2022-12-19T10:54:59;102394.31;;;-0.92;100.00
67052;BME280;53957;47.222;18.670;2022-12-19T10:58:22;102393.53;;;-0.67;100.00
67052;BME280;53957;47.222;18.670;2022-12-19T11:01:37;102389.37;;;-0.69;100.00
67052;BME280;53957;47.222;18.670;2022-12-19T11:04:41;102395.97;;;-0.91;100.00
67052;BME280;53957;47.222;18.670;2022-12-19T11:08:26;102383.53;;;-0.89;100.00
67052;BME280;53957;47.222;18.670;2022-12-19T11:11:33;102379.94;;;-0.88;100.00
67052;BME280;53957;47.222;18.670;2022-12-19T11:15:23;102380.88;;;-0.71;100.00
67052;BME280;53957;47.222;18.670;2022-12-19T11:19:18;102368.13;;;-0.66;100.00
67052;BME280;53957;47.222;18.670;2022-12-19T11:22:58;102374.69;;;-0.36;100.00
67052;BME280;53957;47.222;18.670;2022-12-19T11:34:12;102370.81;;;-0.58;100.00
67052;BME280;53957;47.222;18.670;2022-12-19T11:37:36;102369.56;;;-0.45;100.00
67052;BME280;53957;47.222;18.670;2022-12-19T11:41:24;102373.06;;;-0.37;100.00
67052;BME280;53957;47.222;18.670;2022-12-19T11:49:06;102367.28;;;-0.40;100.00
67052;BME280;53957;47.222;18.670;2022-12-19T11:53:29;102349.41;;;-0.45;100.00
67052;BME280;53957;47.222;18.670;2022-12-19T11:56:44;102349.88;;;-0.50;100.00
67052;BME280;53957;47.222;18.670;2022-12-19T11:59:57;102336.56;;;-0.56;100.00
67052;BME280;53957;47.222;18.670;2022-12-19T12:03:29;102335.53;;;-0.63;100.00
67052;BME280;53957;47.222;18.670;2022-12-19T12:06:55;102333.38;;;-0.42;100.00
67052;BME280;53957;47.222;18.670;2022-12-19T12:10:18;102338.41;;;-0.49;100.00
67052;BME280;53957;47.222;18.670;2022-12-19T12:14:15;102325.13;;;-0.55;100.00
67052;BME280;53957;47.222;18.670;2022-12-19T12:26:27;102319.62;;;-0.36;100.00
67052;BME280;53957;47.222;18.670;2022-12-19T12:30:20;102324.87;;;-0.36;100.00
67052;BME280;53957;47.222;18.670;2022-12-19T12:38:54;102307.53;;;-0.20;100.00
67052;BME280;53957;47.222;18.670;2022-12-19T12:42:47;102298.03;;;-0.29;100.00
67052;BME280;53957;47.222;18.670;2022-12-19T12:46:59;102297.47;;;-0.41;100.00
67052;BME280;53957;47.222;18.670;2022-12-19T12:50:13;102298.28;;;-0.49;100.00
67052;BME280;53957;47.222;18.670;2022-12-19T12:53:45;102310.34;;;-0.56;100.00
67052;BME280;53957;47.222;18.670;2022-12-19T13:04:59;102286.66;;;-0.46;100.00
67052;BME280;53957;47.222;18.670;2022-12-19T13:08:50;102282.56;;;-0.41;100.00
67052;BME280;53957;47.222;18.670;2022-12-19T13:23:45;102272.41;;;-0.44;100.00
67052;BME280;53957;47.222;18.670;2022-12-19T13:27:00;102253.72;;;-0.41;100.00
67052;BME280;53957;47.222;18.670;2022-12-19T13:38:24;102242.75;;;-0.44;100.00
67052;BME280;53957;47.222;18.670;2022-12-19T13:49:44;102233.41;;;-0.82;100.00
67052;BME280;53957;47.222;18.670;2022-12-19T14:08:36;102254.88;;;-0.78;100.00
67052;BME280;53957;47.222;18.670;2022-12-19T14:15:56;102242.91;;;-0.89;100.00
67052;BME280;53957;47.222;18.670;2022-12-19T14:19:26;102238.28;;;-0.95;100.00
67052;BME280;53957;47.222;18.670;2022-12-19T14:26:12;102243.69;;;-0.88;100.00
67052;BME280;53957;47.222;18.670;2022-12-19T16:12:35;102246.56;;;-1.52;100.00
67052;BME280;53957;47.222;18.670;2022-12-19T17:15:43;102201.28;;;-1.71;100.00
67052;BME280;53957;47.222;18.670;2022-12-19T17:33:52;102219.22;;;-1.76;100.00
67052;BME280;53957;47.222;18.670;2022-12-19T17:44:45;102233.91;;;-1.57;100.00
67052;BME280;53957;47.222;18.670;2022-12-19T17:52:16;102229.00;;;-1.60;100.00
67052;BME280;53957;47.222;18.670;2022-12-19T17:55:26;102234.16;;;-1.50;100.00
67052;BME280;53957;47.222;18.670;2022-12-19T18:02:34;102229.97;;;-1.61;100.00
67052;BME280;53957;47.222;18.670;2022-12-19T18:31:58;102216.09;;;-1.62;100.00
67052;BME280;53957;47.222;18.670;2022-12-19T18:42:48;102217.66;;;-1.69;100.00
67052;BME280;53957;47.222;18.670;2022-12-19T18:46:29;102212.06;;;-1.74;100.00
67052;BME280;53957;47.222;18.670;2022-12-19T19:31:08;102167.97;;;-1.87;100.00
67052;BME280;53957;47.222;18.670;2022-12-19T19:38:23;102157.22;;;-1.84;100.00
67052;BME280;53957;47.222;18.670;2022-12-19T19:41:34;102141.97;;;-1.88;100.00
67052;BME280;53957;47.222;18.670;2022-12-19T19:44:36;102136.91;;;-2.08;100.00
67052;BME280;53957;47.222;18.670;2022-12-19T19:47:40;102139.25;;;-2.05;100.00
67052;BME280;53957;47.222;18.670;2022-12-19T19:50:45;102149.22;;;-2.00;100.00
67052;BME280;53957;47.222;18.670;2022-12-19T19:53:51;102154.38;;;-1.90;100.00
67052;BME280;53957;47.222;18.670;2022-12-19T19:56:54;102153.84;;;-1.76;100.00
67052;BME280;53957;47.222;18.670;2022-12-19T19:59:57;102161.94;;;-2.05;100.00
67052;BME280;53957;47.222;18.670;2022-12-19T20:03:00;102155.41;;;-1.83;100.00
67052;BME280;53957;47.222;18.670;2022-12-19T20:06:09;102156.63;;;-1.96;100.00
67052;BME280;53957;47.222;18.670;2022-12-19T20:09:12;102155.50;;;-1.93;100.00
67052;BME280;53957;47.222;18.670;2022-12-19T20:12:15;102166.19;;;-1.86;100.00
67052;BME280;53957;47.222;18.670;2022-12-19T20:15:18;102156.94;;;-1.99;100.00
67052;BME280;53957;47.222;18.670;2022-12-19T20:18:21;102157.75;;;-1.98;100.00
67052;BME280;53957;47.222;18.670;2022-12-19T20:21:24;102156.00;;;-1.89;100.00
67052;BME280;53957;47.222;18.670;2022-12-19T20:24:27;102157.81;;;-2.08;100.00
67052;BME280;53957;47.222;18.670;2022-12-19T20:27:30;102154.69;;;-1.93;100.00
67052;BME280;53957;47.222;18.670;2022-12-19T20:30:35;102150.84;;;-1.81;100.00
67052;BME280;53957;47.222;18.670;2022-12-19T20:33:38;102151.03;;;-2.01;100.00
67052;BME280;53957;47.222;18.670;2022-12-19T20:36:41;102153.47;;;-1.99;100.00
67052;BME280;53957;47.222;18.670;2022-12-19T20:39:44;102143.06;;;-2.17;100.00
67052;BME280;53957;47.222;18.670;2022-12-19T20:42:47;102138.19;;;-2.12;100.00
67052;BME280;53957;47.222;18.670;2022-12-19T20:45:51;102146.69;;;-1.92;100.00
67052;BME280;53957;47.222;18.670;2022-12-19T20:48:54;102143.28;;;-1.84;100.00
67052;BME280;53957;47.222;18.670;2022-12-19T20:51:58;102142.25;;;-1.91;100.00
67052;BME280;53957;47.222;18.670;2022-12-19T20:55:01;102136.81;;;-1.98;100.00
67052;BME280;53957;47.222;18.670;2022-12-19T20:58:04;102138.41;;;-2.05;100.00
67052;BME280;53957;47.222;18.670;2022-12-19T21:01:10;102137.16;;;-2.19;100.00
67052;BME280;53957;47.222;18.670;2022-12-19T21:04:14;102130.03;;;-2.09;100.00
67052;BME280;53957;47.222;18.670;2022-12-19T21:07:17;102131.84;;;-2.09;100.00
67052;BME280;53957;47.222;18.670;2022-12-19T21:10:20;102133.00;;;-2.04;100.00
67052;BME280;53957;47.222;18.670;2022-12-19T21:13:23;102127.88;;;-2.14;100.00
67052;BME280;53957;47.222;18.670;2022-12-19T21:16:26;102131.91;;;-2.19;100.00
67052;BME280;53957;47.222;18.670;2022-12-19T21:19:29;102135.25;;;-2.09;100.00
67052;BME280;53957;47.222;18.670;2022-12-19T21:22:32;102132.59;;;-2.17;100.00
67052;BME280;53957;47.222;18.670;2022-12-19T21:25:35;102128.47;;;-2.20;100.00
67052;BME280;53957;47.222;18.670;2022-12-19T21:28:38;102132.81;;;-2.29;100.00
67052;BME280;53957;47.222;18.670;2022-12-19T21:31:41;102142.13;;;-2.08;100.00
67052;BME280;53957;47.222;18.670;2022-12-19T21:34:44;102143.88;;;-2.17;100.00
67052;BME280;53957;47.222;18.670;2022-12-19T21:37:47;102131.03;;;-2.28;100.00
67052;BME280;53957;47.222;18.670;2022-12-19T21:40:54;102134.00;;;-2.23;100.00
67052;BME280;53957;47.222;18.670;2022-12-19T21:43:57;102137.06;;;-2.28;100.00
67052;BME280;53957;47.222;18.670;2022-12-19T21:47:01;102140.66;;;-2.29;100.00
67052;BME280;53957;47.222;18.670;2022-12-19T21:50:07;102136.62;;;-2.41;100.00
67052;BME280;53957;47.222;18.670;2022-12-19T21:53:10;102138.44;;;-2.23;100.00
67052;BME280;53957;47.222;18.670;2022-12-19T21:59:25;102140.94;;;-2.14;100.00
67052;BME280;53957;47.222;18.670;2022-12-19T22:02:28;102127.53;;;-2.37;100.00
67052;BME280;53957;47.222;18.670;2022-12-19T22:05:31;102128.37;;;-2.10;100.00
67052;BME280;53957;47.222;18.670;2022-12-19T22:08:34;102142.94;;;-2.07;100.00
67052;BME280;53957;47.222;18.670;2022-12-19T22:11:38;102129.97;;;-2.17;100.00
67052;BME280;53957;47.222;18.670;2022-12-19T22:14:42;102123.03;;;-2.27;100.00
67052;BME280;53957;47.222;18.670;2022-12-19T22:17:45;102120.78;;;-2.21;100.00
67052;BME280;53957;47.222;18.670;2022-12-19T22:20:48;102115.94;;;-2.34;100.00
67052;BME280;53957;47.222;18.670;2022-12-19T22:23:51;102103.59;;;-2.24;100.00
67052;BME280;53957;47.222;18.670;2022-12-19T22:26:57;102095.72;;;-2.50;100.00
67052;BME280;53957;47.222;18.670;2022-12-19T22:30:00;102091.06;;;-2.38;100.00
67052;BME280;53957;47.222;18.670;2022-12-19T22:33:12;102095.53;;;-2.67;100.00
